Time,TemperatureF,DewpointF,PressureIn,WindDirection,WindDirectionDegrees,WindSpeedMPH,WindSpeedGustMPH,Humidity,HourlyPrecipIn,Conditions,Clouds,dailyrainin,SoftwareType,DateUTC
2013-01-22 00:00:00,25.5,7.2,29.85,West,261,0.0,2.2,45,0.00,,---,0.00,VWS V14.01,2013-01-22 07:00:00,
2013-01-22 00:05:00,26.1,7.2,29.82,West,275,0.0,0.0,44,0.00,,---,0.00,VWS V14.01,2013-01-22 07:05:00,
2013-01-22 00:10:00,26.1,7.2,29.82,West,275,0.0,0.0,44,0.00,,---,0.00,VWS V14.01,2013-01-22 07:10:00,
2013-01-22 00:15:00,25.5,6.7,29.82,North,10,0.0,0.0,44,0.00,,---,0.00,VWS V14.01,2013-01-22 07:15:00,
2013-01-22 00:20:00,24.8,6.5,29.82,North,9,0.0,0.0,45,0.00,,---,0.00,VWS V14.01,2013-01-22 07:20:00,
2013-01-22 00:25:00,24.3,6.5,29.82,North,9,0.0,0.0,46,0.00,,---,0.00,VWS V14.01,2013-01-22 07:25:00,
2013-01-22 00:30:00,23.7,6.0,29.82,North,9,0.0,0.0,46,0.00,,---,0.00,VWS V14.01,2013-01-22 07:30:00,
2013-01-22 00:35:00,23.5,6.3,29.82,NW,305,3.1,4.0,47,0.00,,---,0.00,VWS V14.01,2013-01-22 07:35:00,
2013-01-22 00:40:00,23.9,6.6,29.82,West,280,2.2,2.2,47,0.00,,---,0.00,VWS V14.01,2013-01-22 07:40:00,
2013-01-22 00:45:00,23.9,6.1,29.82,West,260,2.7,2.7,46,0.00,,---,0.00,VWS V14.01,2013-01-22 07:45:00,
2013-01-22 00:50:00,23.7,5.5,29.82,West,260,0.0,0.0,45,0.00,,---,0.00,VWS V14.01,2013-01-22 07:50:00,
2013-01-22 00:55:00,23.9,5.7,29.82,WSW,258,0.0,0.0,45,0.00,,---,0.00,VWS V14.01,2013-01-22 07:55:00,
2013-01-22 01:00:00,24.1,5.3,29.82,SW,227,0.0,0.0,44,0.00,,---,0.00,VWS V14.01,2013-01-22 08:00:00,
2013-01-22 01:05:00,24.3,5.5,29.82,SW,227,0.0,0.0,44,0.00,,---,0.00,VWS V14.01,2013-01-22 08:05:00,
2013-01-22 01:10:00,23.5,5.3,29.82,SW,227,0.0,0.0,45,0.00,,---,0.00,VWS V14.01,2013-01-22 08:10:00,
2013-01-22 01:15:00,23.0,4.8,29.82,SW,227,0.0,0.0,45,0.00,,---,0.00,VWS V14.01,2013-01-22 08:15:00,
2013-01-22 01:20:00,22.5,4.8,29.82,SW,227,0.0,0.0,46,0.00,,---,0.00,VWS V14.01,2013-01-22 08:20:00,
2013-01-22 01:25:00,23.2,5.5,29.82,SSE,168,0.0,0.0,46,0.00,,---,0.00,VWS V14.01,2013-01-22 08:25:00,
2013-01-22 01:30:00,23.7,5.5,29.82,SSE,161,0.0,0.0,45,0.00,,---,0.00,VWS V14.01,2013-01-22 08:30:00,
2013-01-22 01:35:00,24.1,5.8,29.82,SSE,161,0.0,0.0,45,0.00,,---,0.00,VWS V14.01,2013-01-22 08:35:00,
2013-01-22 01:40:00,24.4,6.2,29.82,SSE,159,0.0,0.0,45,0.00,,---,0.00,VWS V14.01,2013-01-22 08:40:00,
2013-01-22 01:45:00,24.3,5.5,29.82,SSE,158,0.0,0.0,44,0.00,,---,0.00,VWS V14.01,2013-01-22 08:45:00,
2013-01-22 01:50:00,25.0,6.2,29.82,SE,144,0.0,0.0,44,0.00,,---,0.00,VWS V14.01,2013-01-22 08:50:00,
2013-01-22 01:55:00,25.0,5.7,29.82,SE,144,0.0,0.0,43,0.00,,---,0.00,VWS V14.01,2013-01-22 08:55:00,
2013-01-22 02:00:00,24.4,5.7,29.82,SW,231,0.0,0.0,44,0.00,,---,0.00,VWS V14.01,2013-01-22 09:00:00,
2013-01-22 02:05:00,23.7,5.5,29.85,SW,231,0.0,0.0,45,0.00,,---,0.00,VWS V14.01,2013-01-22 09:05:00,
2013-01-22 02:10:00,23.4,5.2,29.85,SW,231,0.0,0.0,45,0.00,,---,0.00,VWS V14.01,2013-01-22 09:10:00,
2013-01-22 02:15:00,22.6,5.5,29.85,SW,231,0.0,0.0,47,0.00,,---,0.00,VWS V14.01,2013-01-22 09:15:00,
2013-01-22 02:20:00,21.9,5.2,29.82,SW,231,0.0,0.0,48,0.00,,---,0.00,VWS V14.01,2013-01-22 09:20:00,
2013-01-22 02:25:00,22.1,5.0,29.82,SSW,195,0.0,0.0,47,0.00,,---,0.00,VWS V14.01,2013-01-22 09:25:00,
2013-01-22 02:30:00,23.0,5.3,29.82,SSE,161,0.0,0.0,46,0.00,,---,0.00,VWS V14.01,2013-01-22 09:30:00,
2013-01-22 02:35:00,23.5,5.8,29.82,SSE,160,0.0,0.0,46,0.00,,---,0.00,VWS V14.01,2013-01-22 09:35:00,
2013-01-22 02:40:00,23.9,5.7,29.82,SSE,160,0.0,0.0,45,0.00,,---,0.00,VWS V14.01,2013-01-22 09:40:00,
2013-01-22 02:45:00,23.4,5.2,29.82,South,190,0.0,0.0,45,0.00,,---,0.00,VWS V14.01,2013-01-22 09:45:00,
2013-01-22 02:50:00,22.8,5.2,29.85,South,190,0.0,0.0,46,0.00,,---,0.00,VWS V14.01,2013-01-22 09:50:00,
2013-01-22 02:55:00,22.6,5.5,29.85,South,189,0.0,0.0,47,0.00,,---,0.00,VWS V14.01,2013-01-22 09:55:00,
2013-01-22 03:00:00,22.3,4.7,29.85,South,183,0.0,0.0,46,0.00,,---,0.00,VWS V14.01,2013-01-22 10:00:00,
2013-01-22 03:05:00,22.1,4.5,29.82,South,183,0.0,0.0,46,0.00,,---,0.00,VWS V14.01,2013-01-22 10:05:00,
2013-01-22 03:10:00,21.9,4.8,29.82,SW,215,0.0,0.0,47,0.00,,---,0.00,VWS V14.01,2013-01-22 10:10:00,
2013-01-22 03:15:00,21.7,5.1,29.82,SSW,201,0.0,0.0,48,0.00,,---,0.00,VWS V14.01,2013-01-22 10:15:00,
2013-01-22 03:20:00,21.4,5.2,29.82,SSW,201,0.0,0.0,49,0.00,,---,0.00,VWS V14.01,2013-01-22 10:20:00,
2013-01-22 03:25:00,21.9,4.8,29.82,SSW,199,0.0,0.0,47,0.00,,---,0.00,VWS V14.01,2013-01-22 10:25:00,
2013-01-22 03:30:00,21.9,5.2,29.82,WNW,296,0.0,4.0,48,0.00,,---,0.00,VWS V14.01,2013-01-22 10:30:00,
2013-01-22 03:35:00,21.9,5.2,29.82,WNW,291,0.0,2.7,48,0.00,,---,0.00,VWS V14.01,2013-01-22 10:35:00,
2013-01-22 03:40:00,22.5,5.3,29.82,WNW,292,3.6,5.4,47,0.00,,---,0.00,VWS V14.01,2013-01-22 10:40:00,
2013-01-22 03:45:00,23.5,5.3,29.82,East,94,3.6,4.9,45,0.00,,---,0.00,VWS V14.01,2013-01-22 10:45:00,
2013-01-22 03:50:00,24.4,6.2,29.82,East,92,0.0,0.0,45,0.00,,---,0.00,VWS V14.01,2013-01-22 10:50:00,
2013-01-22 03:55:00,24.3,5.5,29.82,ESE,117,0.0,0.0,44,0.00,,---,0.00,VWS V14.01,2013-01-22 10:55:00,
2013-01-22 04:00:00,23.5,4.8,29.82,NE,47,0.0,2.7,44,0.00,,---,0.00,VWS V14.01,2013-01-22 11:00:00,
2013-01-22 04:05:00,23.0,4.8,29.82,SE,131,0.0,0.0,45,0.00,,---,0.00,VWS V14.01,2013-01-22 11:05:00,
2013-01-22 04:10:00,23.2,4.5,29.82,NW,309,3.1,5.4,44,0.00,,---,0.00,VWS V14.01,2013-01-22 11:10:00,
2013-01-22 04:15:00,23.7,5.0,29.82,ENE,73,0.0,2.7,44,0.00,,---,0.00,VWS V14.01,2013-01-22 11:15:00,
2013-01-22 04:20:00,24.3,5.5,29.82,ENE,72,0.0,0.0,44,0.00,,---,0.00,VWS V14.01,2013-01-22 11:20:00,
2013-01-22 04:25:00,24.1,5.3,29.82,NNW,335,0.0,0.0,44,0.00,,---,0.00,VWS V14.01,2013-01-22 11:25:00,
2013-01-22 04:30:00,23.7,5.0,29.82,North,357,0.0,0.0,44,0.00,,---,0.00,VWS V14.01,2013-01-22 11:30:00,
2013-01-22 04:35:00,23.4,4.7,29.82,NE,45,0.0,0.0,44,0.00,,---,0.00,VWS V14.01,2013-01-22 11:35:00,
2013-01-22 04:40:00,23.2,4.5,29.82,East,82,6.3,6.3,44,0.00,,---,0.00,VWS V14.01,2013-01-22 11:40:00,
2013-01-22 04:45:00,23.5,4.8,29.82,North,353,0.0,0.0,44,0.00,,---,0.00,VWS V14.01,2013-01-22 11:45:00,
2013-01-22 04:50:00,23.7,5.0,29.82,ESE,123,0.0,0.0,44,0.00,,---,0.00,VWS V14.01,2013-01-22 11:50:00,
2013-01-22 04:55:00,24.1,5.3,29.82,West,259,2.7,2.7,44,0.00,,---,0.00,VWS V14.01,2013-01-22 11:55:00,
2013-01-22 05:01:00,24.1,4.8,29.82,SW,220,0.0,0.0,43,0.00,,---,0.00,VWS V14.01,2013-01-22 12:01:00,
2013-01-22 05:06:00,23.9,4.7,29.82,WNW,292,0.0,0.0,43,0.00,,---,0.00,VWS V14.01,2013-01-22 12:06:00,
2013-01-22 05:11:00,23.5,4.3,29.82,ENE,60,0.0,0.0,43,0.00,,---,0.00,VWS V14.01,2013-01-22 12:11:00,
2013-01-22 05:16:00,23.7,4.5,29.82,ENE,65,0.0,4.0,43,0.00,,---,0.00,VWS V14.01,2013-01-22 12:16:00,
2013-01-22 05:21:00,23.7,4.5,29.82,ESE,103,0.0,0.0,43,0.00,,---,0.00,VWS V14.01,2013-01-22 12:21:00,
2013-01-22 05:26:00,23.5,4.3,29.82,NE,52,3.6,3.6,43,0.00,,---,0.00,VWS V14.01,2013-01-22 12:26:00,
2013-01-22 05:31:00,23.5,4.3,29.82,SW,234,3.6,3.6,43,0.00,,---,0.00,VWS V14.01,2013-01-22 12:31:00,
2013-01-22 05:36:00,23.0,3.8,29.82,SW,223,0.0,0.0,43,0.00,,---,0.00,VWS V14.01,2013-01-22 12:36:00,
2013-01-22 05:41:00,22.8,3.7,29.82,SW,223,0.0,0.0,43,0.00,,---,0.00,VWS V14.01,2013-01-22 12:41:00,
2013-01-22 05:46:00,22.8,3.7,29.82,West,277,0.0,0.0,43,0.00,,---,0.00,VWS V14.01,2013-01-22 12:46:00,
2013-01-22 05:51:00,23.4,4.2,29.82,WSW,253,3.1,6.3,43,0.00,,---,0.00,VWS V14.01,2013-01-22 12:51:00,
2013-01-22 05:56:00,23.5,3.8,29.82,WSW,249,0.0,4.0,42,0.00,,---,0.00,VWS V14.01,2013-01-22 12:56:00,
2013-01-22 06:01:00,23.7,4.0,29.82,North,1,0.0,0.0,42,0.00,,---,0.00,VWS V14.01,2013-01-22 13:01:00,
2013-01-22 06:06:00,23.5,3.8,29.85,WNW,290,0.0,0.0,42,0.00,,---,0.00,VWS V14.01,2013-01-22 13:06:00,
2013-01-22 06:11:00,23.5,3.8,29.85,WNW,282,0.0,0.0,42,0.00,,---,0.00,VWS V14.01,2013-01-22 13:11:00,
2013-01-22 06:16:00,23.2,3.5,29.85,WNW,286,0.0,0.0,42,0.00,,---,0.00,VWS V14.01,2013-01-22 13:16:00,
2013-01-22 06:21:00,23.0,3.8,29.85,NW,306,0.0,0.0,43,0.00,,---,0.00,VWS V14.01,2013-01-22 13:21:00,
2013-01-22 06:26:00,22.6,3.5,29.85,NW,305,0.0,0.0,43,0.00,,---,0.00,VWS V14.01,2013-01-22 13:26:00,
2013-01-22 06:31:00,22.8,3.7,29.85,WNW,303,0.0,0.0,43,0.00,,---,0.00,VWS V14.01,2013-01-22 13:31:00,
2013-01-22 06:36:00,21.9,2.9,29.82,WNW,302,0.0,0.0,43,0.00,,---,0.00,VWS V14.01,2013-01-22 13:36:00,
2013-01-22 06:41:00,21.7,2.7,29.82,WNW,302,0.0,0.0,43,0.00,,---,0.00,VWS V14.01,2013-01-22 13:41:00,
2013-01-22 06:46:00,21.9,3.4,29.82,WSW,258,0.0,0.0,44,0.00,,---,0.00,VWS V14.01,2013-01-22 13:46:00,
2013-01-22 06:51:00,21.7,3.2,29.85,ENE,62,3.6,3.6,44,0.00,,---,0.00,VWS V14.01,2013-01-22 13:51:00,
2013-01-22 06:56:00,21.7,3.2,29.85,West,272,3.1,4.0,44,0.00,,---,0.00,VWS V14.01,2013-01-22 13:56:00,
2013-01-22 07:01:00,21.7,3.2,29.85,WNW,297,4.0,4.9,44,0.00,,---,0.00,VWS V14.01,2013-01-22 14:01:00,
2013-01-22 07:06:00,21.7,3.2,29.85,WNW,297,0.0,0.0,44,0.00,,---,0.00,VWS V14.01,2013-01-22 14:06:00,
2013-01-22 07:11:00,21.7,3.2,29.85,WNW,297,0.0,0.0,44,0.00,,---,0.00,VWS V14.01,2013-01-22 14:11:00,
2013-01-22 07:16:00,21.2,2.7,29.85,WNW,297,0.0,0.0,44,0.00,,---,0.00,VWS V14.01,2013-01-22 14:16:00,
2013-01-22 07:21:00,20.8,2.9,29.85,WNW,297,0.0,0.0,45,0.00,,---,0.00,VWS V14.01,2013-01-22 14:21:00,
2013-01-22 07:26:00,20.3,2.4,29.85,WNW,296,0.0,0.0,45,0.00,,---,0.00,VWS V14.01,2013-01-22 14:26:00,
2013-01-22 07:31:00,20.1,2.2,29.85,WNW,296,0.0,0.0,45,0.00,,---,0.00,VWS V14.01,2013-01-22 14:31:00,
2013-01-22 07:36:00,19.6,2.2,29.85,WNW,295,0.0,0.0,46,0.00,,---,0.00,VWS V14.01,2013-01-22 14:36:00,
2013-01-22 07:41:00,19.4,2.9,29.85,West,277,0.0,0.0,48,0.00,,---,0.00,VWS V14.01,2013-01-22 14:41:00,
2013-01-22 07:46:00,19.2,2.3,29.85,West,276,0.0,0.0,47,0.00,,---,0.00,VWS V14.01,2013-01-22 14:46:00,
2013-01-22 07:51:00,19.4,2.5,29.85,West,276,0.0,0.0,47,0.00,,---,0.00,VWS V14.01,2013-01-22 14:51:00,
2013-01-22 07:56:00,19.2,2.3,29.85,West,276,0.0,0.0,47,0.00,,---,0.00,VWS V14.01,2013-01-22 14:56:00,
2013-01-22 08:01:00,19.0,2.1,29.85,West,278,0.0,0.0,47,0.00,,---,0.00,VWS V14.01,2013-01-22 15:01:00,
2013-01-22 08:06:00,18.7,1.8,29.85,WSW,245,0.0,0.0,47,0.00,,---,0.00,VWS V14.01,2013-01-22 15:06:00,
2013-01-22 08:11:00,19.2,2.3,29.85,WSW,253,0.0,0.0,47,0.00,,---,0.00,VWS V14.01,2013-01-22 15:11:00,
2013-01-22 08:16:00,19.6,2.2,29.85,WSW,238,0.0,0.0,46,0.00,,---,0.00,VWS V14.01,2013-01-22 15:16:00,
2013-01-22 08:21:00,19.9,2.0,29.85,WSW,243,0.0,0.0,45,0.00,,---,0.00,VWS V14.01,2013-01-22 15:21:00,
2013-01-22 08:26:00,20.1,2.2,29.85,West,275,0.0,0.0,45,0.00,,---,0.00,VWS V14.01,2013-01-22 15:26:00,
2013-01-22 08:31:00,20.3,2.4,29.85,West,263,0.0,3.1,45,0.00,,---,0.00,VWS V14.01,2013-01-22 15:31:00,
2013-01-22 08:36:00,20.3,2.4,29.85,West,273,0.0,0.0,45,0.00,,---,0.00,VWS V14.01,2013-01-22 15:36:00,
2013-01-22 08:41:00,21.2,2.7,29.85,SW,232,0.0,3.6,44,0.00,,---,0.00,VWS V14.01,2013-01-22 15:41:00,
2013-01-22 08:46:00,21.6,2.5,29.85,West,276,0.0,2.7,43,0.00,,---,0.00,VWS V14.01,2013-01-22 15:46:00,
2013-01-22 08:51:00,21.9,2.9,29.85,West,277,0.0,0.0,43,0.00,,---,0.00,VWS V14.01,2013-01-22 15:51:00,
2013-01-22 08:56:00,22.5,3.4,29.85,WSW,244,3.6,5.8,43,0.00,,---,0.00,VWS V14.01,2013-01-22 15:56:00,
2013-01-22 09:01:00,22.8,3.2,29.85,West,265,0.0,0.0,42,0.00,,---,0.00,VWS V14.01,2013-01-22 16:01:00,
2013-01-22 09:06:00,23.2,3.5,29.85,West,265,0.0,0.0,42,0.00,,---,0.00,VWS V14.01,2013-01-22 16:06:00,
2013-01-22 09:11:00,23.5,3.8,29.85,West,265,0.0,0.0,42,0.00,,---,0.00,VWS V14.01,2013-01-22 16:11:00,
2013-01-22 09:16:00,24.1,4.3,29.85,NW,312,0.0,3.1,42,0.00,,---,0.00,VWS V14.01,2013-01-22 16:16:00,
2013-01-22 09:21:00,24.1,3.8,29.85,NW,312,0.0,0.0,41,0.00,,---,0.00,VWS V14.01,2013-01-22 16:21:00,
2013-01-22 09:26:00,24.4,4.7,29.85,NW,312,0.0,0.0,42,0.00,,---,0.00,VWS V14.01,2013-01-22 16:26:00,
2013-01-22 09:31:00,25.0,4.6,29.85,NW,312,0.0,0.0,41,0.00,,---,0.00,VWS V14.01,2013-01-22 16:31:00,
2013-01-22 09:36:00,25.2,4.8,29.85,NW,312,0.0,0.0,41,0.00,,---,0.00,VWS V14.01,2013-01-22 16:36:00,
2013-01-22 09:41:00,25.5,5.1,29.85,NW,312,0.0,0.0,41,0.00,,---,0.00,VWS V14.01,2013-01-22 16:41:00,
2013-01-22 09:46:00,26.1,5.6,29.85,NW,312,0.0,0.0,41,0.00,,---,0.00,VWS V14.01,2013-01-22 16:46:00,
2013-01-22 09:51:00,26.8,6.2,29.88,NW,312,0.0,0.0,41,0.00,,---,0.00,VWS V14.01,2013-01-22 16:51:00,
2013-01-22 09:56:00,27.1,6.6,29.88,NW,312,0.0,0.0,41,0.00,,---,0.00,VWS V14.01,2013-01-22 16:56:00,
2013-01-22 10:01:00,27.5,6.9,29.88,NW,312,0.0,0.0,41,0.00,,---,0.00,VWS V14.01,2013-01-22 17:01:00,
2013-01-22 10:06:00,28.2,7.6,29.88,NW,312,0.0,0.0,41,0.00,,---,0.00,VWS V14.01,2013-01-22 17:06:00,
2013-01-22 10:11:00,28.6,7.3,29.88,NW,315,0.0,0.0,40,0.00,,---,0.00,VWS V14.01,2013-01-22 17:11:00,
2013-01-22 10:16:00,28.9,7.7,29.88,NW,318,0.0,0.0,40,0.00,,---,0.00,VWS V14.01,2013-01-22 17:16:00,
2013-01-22 10:21:00,29.1,7.8,29.88,NNW,328,0.0,0.0,40,0.00,,---,0.00,VWS V14.01,2013-01-22 17:21:00,
2013-01-22 10:26:00,29.5,7.6,29.88,NNE,17,0.0,0.0,39,0.00,,---,0.00,VWS V14.01,2013-01-22 17:26:00,
2013-01-22 10:31:00,29.3,6.3,29.88,ENE,58,0.0,0.0,37,0.00,,---,0.00,VWS V14.01,2013-01-22 17:31:00,
2013-01-22 10:36:00,28.6,6.2,29.85,ENE,61,0.0,0.0,38,0.00,,---,0.00,VWS V14.01,2013-01-22 17:36:00,
2013-01-22 10:41:00,28.4,6.6,29.85,ENE,61,0.0,0.0,39,0.00,,---,0.00,VWS V14.01,2013-01-22 17:41:00,
2013-01-22 10:46:00,28.6,6.8,29.85,ENE,61,0.0,0.0,39,0.00,,---,0.00,VWS V14.01,2013-01-22 17:46:00,
2013-01-22 10:51:00,28.8,6.9,29.88,ENE,61,0.0,0.0,39,0.00,,---,0.00,VWS V14.01,2013-01-22 17:51:00,
2013-01-22 10:56:00,28.9,7.1,29.88,ENE,61,0.0,0.0,39,0.00,,---,0.00,VWS V14.01,2013-01-22 17:56:00,
2013-01-22 11:01:00,29.1,7.3,29.88,ENE,61,0.0,0.0,39,0.00,,---,0.00,VWS V14.01,2013-01-22 18:01:00,
2013-01-22 11:06:00,29.5,7.6,29.88,ENE,61,0.0,0.0,39,0.00,,---,0.00,VWS V14.01,2013-01-22 18:06:00,
2013-01-22 11:11:00,29.7,7.8,29.88,ENE,61,0.0,0.0,39,0.00,,---,0.00,VWS V14.01,2013-01-22 18:11:00,
2013-01-22 11:16:00,30.0,8.1,29.88,ENE,61,0.0,0.0,39,0.00,,---,0.00,VWS V14.01,2013-01-22 18:16:00,
2013-01-22 11:21:00,30.7,8.7,29.88,ENE,61,0.0,0.0,39,0.00,,---,0.00,VWS V14.01,2013-01-22 18:21:00,
2013-01-22 11:25:00,31.6,9.0,29.88,ENE,61,0.0,0.0,38,0.00,,---,0.00,VWS V14.01,2013-01-22 18:25:00,
2013-01-22 11:30:00,31.6,9.0,29.88,ENE,61,0.0,0.0,38,0.00,,---,0.00,VWS V14.01,2013-01-22 18:30:00,
2013-01-22 11:35:00,32.0,9.3,29.88,ENE,61,0.0,0.0,38,0.00,,---,0.00,VWS V14.01,2013-01-22 18:35:00,
2013-01-22 11:40:00,33.1,10.2,29.88,ENE,61,0.0,0.0,38,0.00,,---,0.00,VWS V14.01,2013-01-22 18:40:00,
2013-01-22 11:45:00,34.3,10.8,29.88,ENE,61,0.0,0.0,37,0.00,,---,0.00,VWS V14.01,2013-01-22 18:45:00,
2013-01-22 11:50:00,35.4,11.8,29.88,ENE,61,0.0,0.0,37,0.00,,---,0.00,VWS V14.01,2013-01-22 18:50:00,
2013-01-22 11:55:00,36.7,11.6,29.88,ENE,61,0.0,0.0,35,0.00,,---,0.00,VWS V14.01,2013-01-22 18:55:00,
2013-01-22 12:00:00,37.2,11.4,29.88,ENE,61,0.0,0.0,34,0.00,,---,0.00,VWS V14.01,2013-01-22 19:00:00,
2013-01-22 12:05:00,37.8,11.3,29.88,ENE,61,0.0,0.0,33,0.00,,---,0.00,VWS V14.01,2013-01-22 19:05:00,
2013-01-22 12:10:00,37.9,11.4,29.88,ENE,57,0.0,0.0,33,0.00,,---,0.00,VWS V14.01,2013-01-22 19:10:00,
2013-01-22 12:15:00,38.1,11.6,29.88,ENE,57,0.0,0.0,33,0.00,,---,0.00,VWS V14.01,2013-01-22 19:15:00,
2013-01-22 12:20:00,38.1,11.6,29.85,NE,46,0.0,0.0,33,0.00,,---,0.00,VWS V14.01,2013-01-22 19:20:00,
2013-01-22 12:25:00,38.7,12.1,29.85,ENE,61,2.2,3.6,33,0.00,,---,0.00,VWS V14.01,2013-01-22 19:25:00,
2013-01-22 12:30:00,39.0,11.7,29.85,ENE,61,0.0,0.0,32,0.00,,---,0.00,VWS V14.01,2013-01-22 19:30:00,
2013-01-22 12:35:00,38.8,10.8,29.85,NE,39,0.0,0.0,31,0.00,,---,0.00,VWS V14.01,2013-01-22 19:35:00,
2013-01-22 12:40:00,38.7,10.6,29.85,NE,45,3.1,3.1,31,0.00,,---,0.00,VWS V14.01,2013-01-22 19:40:00,
2013-01-22 12:45:00,38.7,10.6,29.85,NE,39,0.0,0.0,31,0.00,,---,0.00,VWS V14.01,2013-01-22 19:45:00,
2013-01-22 12:51:00,38.7,10.6,29.85,NE,41,0.0,0.0,31,0.00,,---,0.00,VWS V14.01,2013-01-22 19:51:00,
2013-01-22 12:56:00,39.2,10.4,29.85,NE,41,0.0,0.0,30,0.00,,---,0.00,VWS V14.01,2013-01-22 19:56:00,
2013-01-22 13:01:00,39.6,10.7,29.85,NE,41,0.0,0.0,30,0.00,,---,0.00,VWS V14.01,2013-01-22 20:01:00,
2013-01-22 13:05:00,40.1,11.2,29.85,NE,41,0.0,0.0,30,0.00,,---,0.00,VWS V14.01,2013-01-22 20:05:00,
2013-01-22 13:11:00,40.5,10.7,29.85,NE,41,0.0,0.0,29,0.00,,---,0.00,VWS V14.01,2013-01-22 20:11:00,
2013-01-22 13:16:00,40.3,10.6,29.85,NE,42,0.0,0.0,29,0.00,,---,0.00,VWS V14.01,2013-01-22 20:16:00,
2013-01-22 13:21:00,40.3,10.6,29.85,NE,42,0.0,0.0,29,0.00,,---,0.00,VWS V14.01,2013-01-22 20:21:00,
2013-01-22 13:26:00,40.1,10.4,29.85,NE,42,0.0,0.0,29,0.00,,---,0.00,VWS V14.01,2013-01-22 20:26:00,
2013-01-22 13:31:00,40.5,10.7,29.85,NE,42,0.0,0.0,29,0.00,,---,0.00,VWS V14.01,2013-01-22 20:31:00,
2013-01-22 13:35:00,40.8,11.0,29.85,NE,42,0.0,0.0,29,0.00,,---,0.00,VWS V14.01,2013-01-22 20:35:00,
2013-01-22 13:41:00,41.5,11.7,29.85,NE,42,0.0,0.0,29,0.00,,---,0.00,VWS V14.01,2013-01-22 20:41:00,
2013-01-22 13:45:00,42.3,12.3,29.85,NE,42,0.0,0.0,29,0.00,,---,0.00,VWS V14.01,2013-01-22 20:45:00,
2013-01-22 13:50:00,42.8,12.8,29.85,NE,42,0.0,0.0,29,0.00,,---,0.00,VWS V14.01,2013-01-22 20:50:00,
2013-01-22 13:55:00,43.0,12.9,29.85,NE,44,0.0,0.0,29,0.00,,---,0.00,VWS V14.01,2013-01-22 20:55:00,
2013-01-22 14:00:00,42.4,12.4,29.85,NE,46,0.0,0.0,29,0.00,,---,0.00,VWS V14.01,2013-01-22 21:00:00,
2013-01-22 14:05:00,42.6,12.6,29.82,NE,46,0.0,0.0,29,0.00,,---,0.00,VWS V14.01,2013-01-22 21:05:00,
2013-01-22 14:10:00,42.6,12.6,29.82,NE,46,0.0,0.0,29,0.00,,---,0.00,VWS V14.01,2013-01-22 21:10:00,
2013-01-22 14:15:00,42.1,12.1,29.82,NE,46,0.0,0.0,29,0.00,,---,0.00,VWS V14.01,2013-01-22 21:15:00,
2013-01-22 14:20:00,41.9,12.0,29.82,NE,46,0.0,0.0,29,0.00,,---,0.00,VWS V14.01,2013-01-22 21:20:00,
2013-01-22 14:25:00,41.2,11.4,29.82,NE,46,0.0,0.0,29,0.00,,---,0.00,VWS V14.01,2013-01-22 21:25:00,
2013-01-22 14:30:00,41.4,11.5,29.82,NE,46,0.0,0.0,29,0.00,,---,0.00,VWS V14.01,2013-01-22 21:30:00,
2013-01-22 14:31:00,41.2,11.4,29.82,NE,46,0.0,0.0,29,0.00,,---,0.00,VWS V14.01,2013-01-22 21:31:00,
2013-01-22 14:36:00,41.0,11.2,29.82,NE,46,0.0,0.0,29,0.00,,---,0.00,VWS V14.01,2013-01-22 21:36:00,
2013-01-22 14:41:00,40.5,11.5,29.82,NE,46,0.0,0.0,30,0.00,,---,0.00,VWS V14.01,2013-01-22 21:41:00,
2013-01-22 14:46:00,40.3,11.3,29.82,NE,46,0.0,0.0,30,0.00,,---,0.00,VWS V14.01,2013-01-22 21:46:00,
2013-01-22 14:51:00,39.9,11.0,29.82,NE,46,0.0,0.0,30,0.00,,---,0.00,VWS V14.01,2013-01-22 21:51:00,
2013-01-22 14:56:00,40.3,11.3,29.82,NE,46,0.0,0.0,30,0.00,,---,0.00,VWS V14.01,2013-01-22 21:56:00,
2013-01-22 15:01:00,40.8,11.8,29.82,NE,47,0.0,0.0,30,0.00,,---,0.00,VWS V14.01,2013-01-22 22:01:00,
2013-01-22 15:07:00,41.0,11.2,29.82,NE,48,0.0,0.0,29,0.00,,---,0.00,VWS V14.01,2013-01-22 22:07:00,
2013-01-22 15:12:00,41.0,11.2,29.82,NE,48,0.0,0.0,29,0.00,,---,0.00,VWS V14.01,2013-01-22 22:12:00,
2013-01-22 15:17:00,41.2,11.4,29.82,NE,48,0.0,0.0,29,0.00,,---,0.00,VWS V14.01,2013-01-22 22:17:00,
2013-01-22 15:22:00,41.4,11.5,29.82,NNE,33,0.0,0.0,29,0.00,,---,0.00,VWS V14.01,2013-01-22 22:22:00,
2013-01-22 15:27:00,41.5,11.7,29.82,NNE,33,0.0,0.0,29,0.00,,---,0.00,VWS V14.01,2013-01-22 22:27:00,
2013-01-22 15:32:00,41.7,11.8,29.82,NNE,33,0.0,0.0,29,0.00,,---,0.00,VWS V14.01,2013-01-22 22:32:00,
2013-01-22 15:37:00,42.1,12.1,29.82,NNE,33,0.0,0.0,29,0.00,,---,0.00,VWS V14.01,2013-01-22 22:37:00,
2013-01-22 15:42:00,42.4,12.4,29.82,NNE,33,0.0,0.0,29,0.00,,---,0.00,VWS V14.01,2013-01-22 22:42:00,
2013-01-22 15:47:00,42.4,12.4,29.82,NNE,33,0.0,0.0,29,0.00,,---,0.00,VWS V14.01,2013-01-22 22:47:00,
2013-01-22 15:52:00,42.8,12.8,29.82,NNE,33,0.0,0.0,29,0.00,,---,0.00,VWS V14.01,2013-01-22 22:52:00,
2013-01-22 15:57:00,42.8,12.8,29.82,NNE,33,0.0,0.0,29,0.00,,---,0.00,VWS V14.01,2013-01-22 22:57:00,
2013-01-22 16:02:00,42.8,12.8,29.82,NNE,33,0.0,0.0,29,0.00,,---,0.00,VWS V14.01,2013-01-22 23:02:00,
2013-01-22 16:07:00,42.3,12.3,29.82,NE,38,0.0,0.0,29,0.00,,---,0.00,VWS V14.01,2013-01-22 23:07:00,
2013-01-22 16:12:00,41.7,11.8,29.82,NE,38,0.0,0.0,29,0.00,,---,0.00,VWS V14.01,2013-01-22 23:12:00,
2013-01-22 16:17:00,41.4,11.5,29.82,NE,34,0.0,0.0,29,0.00,,---,0.00,VWS V14.01,2013-01-22 23:17:00,
2013-01-22 16:22:00,40.8,11.8,29.79,NE,34,0.0,0.0,30,0.00,,---,0.00,VWS V14.01,2013-01-22 23:22:00,
2013-01-22 16:27:00,39.9,11.0,29.79,NNE,32,0.0,0.0,30,0.00,,---,0.00,VWS V14.01,2013-01-22 23:27:00,
2013-01-22 16:32:00,38.8,10.8,29.79,NNE,33,0.0,0.0,31,0.00,,---,0.00,VWS V14.01,2013-01-22 23:32:00,
2013-01-22 16:37:00,37.9,10.7,29.82,NNE,33,0.0,0.0,32,0.00,,---,0.00,VWS V14.01,2013-01-22 23:37:00,
2013-01-22 16:42:00,36.9,11.8,29.82,ESE,111,0.0,0.0,35,0.00,,---,0.00,VWS V14.01,2013-01-22 23:42:00,
2013-01-22 16:47:00,35.4,12.4,29.82,ESE,114,0.0,0.0,38,0.00,,---,0.00,VWS V14.01,2013-01-22 23:47:00,
2013-01-22 16:52:00,34.5,12.7,29.82,ESE,114,0.0,0.0,40,0.00,,---,0.00,VWS V14.01,2013-01-22 23:52:00,
2013-01-22 16:57:00,33.8,12.1,29.82,ESE,114,0.0,2.7,40,0.00,,---,0.00,VWS V14.01,2013-01-22 23:57:00,
2013-01-22 17:02:00,33.1,12.0,29.79,ESE,107,2.7,2.7,41,0.00,,---,0.00,VWS V14.01,2013-01-23 00:02:00,
2013-01-22 17:07:00,32.7,11.6,29.79,ESE,106,0.0,0.0,41,0.00,,---,0.00,VWS V14.01,2013-01-23 00:07:00,
2013-01-22 17:12:00,32.4,11.3,29.79,ESE,106,0.0,0.0,41,0.00,,---,0.00,VWS V14.01,2013-01-23 00:12:00,
2013-01-22 17:17:00,32.0,11.5,29.82,ESE,106,0.0,0.0,42,0.00,,---,0.00,VWS V14.01,2013-01-23 00:17:00,
2013-01-22 17:22:00,31.5,11.0,29.82,SE,127,0.0,0.0,42,0.00,,---,0.00,VWS V14.01,2013-01-23 00:22:00,
2013-01-22 17:27:00,30.9,10.5,29.82,SE,127,0.0,0.0,42,0.00,,---,0.00,VWS V14.01,2013-01-23 00:27:00,
2013-01-22 17:32:00,30.7,10.4,29.82,SE,127,0.0,0.0,42,0.00,,---,0.00,VWS V14.01,2013-01-23 00:32:00,
2013-01-22 17:37:00,30.7,10.4,29.82,SE,125,0.0,0.0,42,0.00,,---,0.00,VWS V14.01,2013-01-23 00:37:00,
2013-01-22 17:42:00,30.4,10.1,29.82,SE,125,0.0,0.0,42,0.00,,---,0.00,VWS V14.01,2013-01-23 00:42:00,
2013-01-22 17:47:00,30.2,10.4,29.82,SE,126,0.0,0.0,43,0.00,,---,0.00,VWS V14.01,2013-01-23 00:47:00,
2013-01-22 17:52:00,29.8,10.6,29.82,SE,125,0.0,0.0,44,0.00,,---,0.00,VWS V14.01,2013-01-23 00:52:00,
2013-01-22 17:57:00,29.7,10.4,29.82,SE,137,0.0,0.0,44,0.00,,---,0.00,VWS V14.01,2013-01-23 00:57:00,
2013-01-22 18:02:00,29.5,11.8,29.82,SE,137,0.0,0.0,47,0.00,,---,0.00,VWS V14.01,2013-01-23 01:02:00,
2013-01-22 18:07:00,29.3,11.1,29.82,SE,137,0.0,0.0,46,0.00,,---,0.00,VWS V14.01,2013-01-23 01:07:00,
2013-01-22 18:12:00,29.1,10.9,29.82,SE,137,0.0,0.0,46,0.00,,---,0.00,VWS V14.01,2013-01-23 01:12:00,
2013-01-22 18:17:00,28.9,10.8,29.82,SE,137,0.0,0.0,46,0.00,,---,0.00,VWS V14.01,2013-01-23 01:17:00,
2013-01-22 18:22:00,28.9,10.8,29.82,SE,137,0.0,0.0,46,0.00,,---,0.00,VWS V14.01,2013-01-23 01:22:00,
2013-01-22 18:27:00,28.8,11.1,29.82,SE,137,0.0,0.0,47,0.00,,---,0.00,VWS V14.01,2013-01-23 01:27:00,
2013-01-22 18:32:00,28.2,11.5,29.82,SE,137,0.0,0.0,49,0.00,,---,0.00,VWS V14.01,2013-01-23 01:32:00,
2013-01-22 18:37:00,28.2,11.1,29.82,SE,137,0.0,0.0,48,0.00,,---,0.00,VWS V14.01,2013-01-23 01:37:00,
2013-01-22 18:42:00,28.4,11.2,29.82,West,268,0.0,2.2,48,0.00,,---,0.00,VWS V14.01,2013-01-23 01:42:00,
2013-01-22 18:47:00,28.6,10.9,29.82,West,270,0.0,0.0,47,0.00,,---,0.00,VWS V14.01,2013-01-23 01:47:00,
2013-01-22 18:52:00,28.6,10.9,29.82,West,270,0.0,0.0,47,0.00,,---,0.00,VWS V14.01,2013-01-23 01:52:00,
2013-01-22 18:57:00,28.6,10.4,29.82,West,274,0.0,0.0,46,0.00,,---,0.00,VWS V14.01,2013-01-23 01:57:00,
2013-01-22 19:02:00,28.4,10.8,29.82,West,274,0.0,0.0,47,0.00,,---,0.00,VWS V14.01,2013-01-23 02:02:00,
2013-01-22 19:07:00,27.9,9.8,29.82,WSW,239,0.0,0.0,46,0.00,,---,0.00,VWS V14.01,2013-01-23 02:07:00,
2013-01-22 19:12:00,27.9,9.8,29.82,WSW,252,0.0,0.0,46,0.00,,---,0.00,VWS V14.01,2013-01-23 02:12:00,
2013-01-22 19:17:00,27.9,10.3,29.79,West,265,0.0,0.0,47,0.00,,---,0.00,VWS V14.01,2013-01-23 02:17:00,
2013-01-22 19:22:00,27.9,10.3,29.79,West,266,0.0,0.0,47,0.00,,---,0.00,VWS V14.01,2013-01-23 02:22:00,
2013-01-22 19:28:00,28.0,9.9,29.79,West,278,2.7,3.6,46,0.00,,---,0.00,VWS V14.01,2013-01-23 02:28:00,
2013-01-22 19:33:00,27.9,10.3,29.79,West,271,0.0,0.0,47,0.00,,---,0.00,VWS V14.01,2013-01-23 02:33:00,
2013-01-22 19:38:00,28.0,9.9,29.79,WSW,258,0.0,0.0,46,0.00,,---,0.00,VWS V14.01,2013-01-23 02:38:00,
2013-01-22 19:43:00,27.9,9.3,29.79,WSW,258,0.0,0.0,45,0.00,,---,0.00,VWS V14.01,2013-01-23 02:43:00,
2013-01-22 19:48:00,27.9,8.8,29.79,SW,219,0.0,0.0,44,0.00,,---,0.00,VWS V14.01,2013-01-23 02:48:00,
2013-01-22 19:53:00,28.4,9.3,29.79,West,264,0.0,0.0,44,0.00,,---,0.00,VWS V14.01,2013-01-23 02:53:00,
2013-01-22 19:58:00,28.6,8.9,29.79,West,261,0.0,0.0,43,0.00,,---,0.00,VWS V14.01,2013-01-23 02:58:00,
2013-01-22 20:03:00,28.6,8.9,29.79,West,261,0.0,0.0,43,0.00,,---,0.00,VWS V14.01,2013-01-23 03:03:00,
2013-01-22 20:08:00,28.6,8.9,29.79,West,268,3.6,4.0,43,0.00,,---,0.00,VWS V14.01,2013-01-23 03:08:00,
2013-01-22 20:13:00,28.8,8.6,29.79,WNW,291,2.7,2.7,42,0.00,,---,0.00,VWS V14.01,2013-01-23 03:13:00,
2013-01-22 20:18:00,28.6,8.4,29.79,WNW,289,2.7,2.7,42,0.00,,---,0.00,VWS V14.01,2013-01-23 03:18:00,
2013-01-22 20:23:00,28.4,8.8,29.79,West,274,0.0,0.0,43,0.00,,---,0.00,VWS V14.01,2013-01-23 03:23:00,
2013-01-22 20:28:00,28.2,8.6,29.79,WSW,245,3.6,3.6,43,0.00,,---,0.00,VWS V14.01,2013-01-23 03:28:00,
2013-01-22 20:33:00,28.4,8.2,29.79,WNW,296,3.6,3.6,42,0.00,,---,0.00,VWS V14.01,2013-01-23 03:33:00,
2013-01-22 20:38:00,28.4,8.2,29.79,WNW,301,2.2,3.1,42,0.00,,---,0.00,VWS V14.01,2013-01-23 03:38:00,
2013-01-22 20:43:00,28.4,8.2,29.79,WNW,301,0.0,0.0,42,0.00,,---,0.00,VWS V14.01,2013-01-23 03:43:00,
2013-01-22 20:48:00,28.2,8.1,29.79,WNW,294,0.0,0.0,42,0.00,,---,0.00,VWS V14.01,2013-01-23 03:48:00,
2013-01-22 20:53:00,28.0,7.9,29.79,West,272,2.7,4.0,42,0.00,,---,0.00,VWS V14.01,2013-01-23 03:53:00,
2013-01-22 20:58:00,27.9,8.3,29.79,West,270,0.0,0.0,43,0.00,,---,0.00,VWS V14.01,2013-01-23 03:58:00,
2013-01-22 21:03:00,27.5,7.9,29.79,West,270,0.0,0.0,43,0.00,,---,0.00,VWS V14.01,2013-01-23 04:03:00,
2013-01-22 21:08:00,27.3,7.8,29.79,WSW,256,0.0,0.0,43,0.00,,---,0.00,VWS V14.01,2013-01-23 04:08:00,
2013-01-22 21:13:00,27.0,7.5,29.79,SW,231,0.0,0.0,43,0.00,,---,0.00,VWS V14.01,2013-01-23 04:13:00,
2013-01-22 21:18:00,27.0,7.5,29.79,SW,236,0.0,0.0,43,0.00,,---,0.00,VWS V14.01,2013-01-23 04:18:00,
2013-01-22 21:23:00,27.0,7.5,29.79,WNW,292,4.9,4.9,43,0.00,,---,0.00,VWS V14.01,2013-01-23 04:23:00,
2013-01-22 21:28:00,27.0,7.5,29.79,WNW,291,4.0,4.0,43,0.00,,---,0.00,VWS V14.01,2013-01-23 04:28:00,
2013-01-22 21:33:00,27.0,6.9,29.79,WNW,293,0.0,0.0,42,0.00,,---,0.00,VWS V14.01,2013-01-23 04:33:00,
2013-01-22 21:38:00,26.8,7.3,29.79,WNW,293,0.0,0.0,43,0.00,,---,0.00,VWS V14.01,2013-01-23 04:38:00,
2013-01-22 21:43:00,26.2,7.3,29.79,WNW,293,0.0,0.0,44,0.00,,---,0.00,VWS V14.01,2013-01-23 04:43:00,
2013-01-22 21:48:00,25.7,6.8,29.82,WNW,293,0.0,0.0,44,0.00,,---,0.00,VWS V14.01,2013-01-23 04:48:00,
2013-01-22 21:53:00,25.2,6.3,29.82,WNW,293,0.0,0.0,44,0.00,,---,0.00,VWS V14.01,2013-01-23 04:53:00,
2013-01-22 21:58:00,24.8,6.5,29.82,WNW,293,0.0,0.0,45,0.00,,---,0.00,VWS V14.01,2013-01-23 04:58:00,
2013-01-22 22:00:00,24.8,6.5,29.82,WNW,293,0.0,0.0,45,0.00,,---,0.00,VWS V14.01,2013-01-23 05:00:00,
2013-01-22 22:02:00,24.8,6.5,29.82,WNW,293,0.0,0.0,45,0.00,,---,0.00,VWS V14.01,2013-01-23 05:02:00,
2013-01-22 22:03:00,24.8,6.5,29.82,WNW,293,0.0,0.0,45,0.00,,---,0.00,VWS V14.01,2013-01-23 05:03:00,
2013-01-22 22:08:00,25.0,6.7,29.82,WNW,293,0.0,0.0,45,0.00,,---,0.00,VWS V14.01,2013-01-23 05:08:00,
2013-01-22 22:13:00,25.0,6.2,29.82,WNW,293,0.0,0.0,44,0.00,,---,0.00,VWS V14.01,2013-01-23 05:13:00,
2013-01-22 22:18:00,24.6,6.3,29.82,WNW,293,0.0,0.0,45,0.00,,---,0.00,VWS V14.01,2013-01-23 05:18:00,
2013-01-22 22:23:00,24.1,7.2,29.82,WNW,293,0.0,0.0,48,0.00,,---,0.00,VWS V14.01,2013-01-23 05:23:00,
2013-01-22 22:28:00,23.5,6.3,29.82,WNW,292,0.0,0.0,47,0.00,,---,0.00,VWS V14.01,2013-01-23 05:28:00,
2013-01-22 22:33:00,23.5,6.3,29.82,WNW,293,0.0,0.0,47,0.00,,---,0.00,VWS V14.01,2013-01-23 05:33:00,
2013-01-22 22:38:00,23.5,6.8,29.82,WNW,293,0.0,0.0,48,0.00,,---,0.00,VWS V14.01,2013-01-23 05:38:00,
2013-01-22 22:43:00,23.4,7.0,29.82,WNW,292,0.0,0.0,49,0.00,,---,0.00,VWS V14.01,2013-01-23 05:43:00,
2013-01-22 22:48:00,23.5,7.2,29.79,WNW,293,3.6,3.6,49,0.00,,---,0.00,VWS V14.01,2013-01-23 05:48:00,
2013-01-22 22:53:00,24.4,7.1,29.79,WNW,299,0.0,2.7,47,0.00,,---,0.00,VWS V14.01,2013-01-23 05:53:00,
2013-01-22 22:58:00,25.0,7.1,29.79,WNW,296,0.0,0.0,46,0.00,,---,0.00,VWS V14.01,2013-01-23 05:58:00,
2013-01-22 23:03:00,25.0,7.1,29.82,WNW,296,0.0,0.0,46,0.00,,---,0.00,VWS V14.01,2013-01-23 06:03:00,
2013-01-22 23:08:00,24.6,6.8,29.82,WNW,287,0.0,0.0,46,0.00,,---,0.00,VWS V14.01,2013-01-23 06:08:00,
2013-01-22 23:13:00,25.0,6.7,29.82,WNW,292,0.0,0.0,45,0.00,,---,0.00,VWS V14.01,2013-01-23 06:13:00,
2013-01-22 23:18:00,25.3,6.5,29.79,West,265,2.7,3.1,44,0.00,,---,0.00,VWS V14.01,2013-01-23 06:18:00,
2013-01-22 23:23:00,25.9,7.0,29.79,WSW,253,4.0,4.0,44,0.00,,---,0.00,VWS V14.01,2013-01-23 06:23:00,
2013-01-22 23:28:00,26.6,7.1,29.79,West,260,5.4,6.3,43,0.00,,---,0.00,VWS V14.01,2013-01-23 06:28:00,
2013-01-22 23:33:00,27.0,6.9,29.79,West,272,5.4,5.8,42,0.00,,---,0.00,VWS V14.01,2013-01-23 06:33:00,
2013-01-22 23:38:00,27.3,7.3,29.79,SW,232,3.1,4.0,42,0.00,,---,0.00,VWS V14.01,2013-01-23 06:38:00,
2013-01-22 23:43:00,27.1,7.1,29.79,WSW,257,5.8,5.8,42,0.00,,---,0.00,VWS V14.01,2013-01-23 06:43:00,
2013-01-22 23:48:00,27.3,7.3,29.79,SW,228,5.4,5.8,42,0.00,,---,0.00,VWS V14.01,2013-01-23 06:48:00,
2013-01-22 23:53:00,27.1,7.1,29.79,SW,236,3.6,4.0,42,0.00,,---,0.00,VWS V14.01,2013-01-23 06:53:00,
2013-01-22 23:58:00,26.8,6.8,29.79,SW,216,2.7,2.7,42,0.00,,---,0.00,VWS V14.01,2013-01-23 06:58:00,